createdAt,value
2018-02-23T00:02:20.846Z,12.00
2018-02-23T00:04:54.086Z,11.40
2018-02-23T00:07:23.593Z,10.87
2018-02-23T00:09:53.948Z,11.43
2018-02-23T00:12:26.696Z,11.27
2018-02-23T00:14:56.715Z,11.10
2018-02-23T00:17:26.605Z,11.73
2018-02-23T00:19:57.071Z,12.07
2018-02-23T00:22:39.170Z,11.67
2018-02-23T00:25:08.599Z,12.63
2018-02-23T00:27:39.297Z,11.70
2018-02-23T00:30:09.927Z,10.87
2018-02-23T00:32:39.333Z,11.97
2018-02-23T00:35:08.482Z,12.30
2018-02-23T00:37:37.991Z,11.70
2018-02-23T00:40:08.236Z,11.93
2018-02-23T00:42:38.119Z,11.53
2018-02-23T00:45:08.029Z,12.80
2018-02-23T00:47:37.755Z,12.50
2018-02-23T00:50:07.259Z,12.57
2018-02-23T00:52:37.899Z,12.87
2018-02-23T00:55:08.345Z,13.00
2018-02-23T00:57:38.943Z,12.53
2018-02-23T01:00:08.147Z,13.67
2018-02-23T01:02:38.471Z,13.50
2018-02-23T01:05:10.209Z,13.47
2018-02-23T01:07:39.816Z,13.10
2018-02-23T01:10:10.201Z,14.00
2018-02-23T01:15:41.985Z,13.20
2018-02-23T01:18:12.674Z,13.63
2018-02-23T01:20:42.919Z,13.60
2018-02-23T01:23:13.326Z,14.23
2018-02-23T01:25:45.481Z,13.73
2018-02-23T01:28:15.109Z,15.50
2018-02-23T01:30:44.495Z,14.07
2018-02-23T01:33:14.984Z,14.57
2018-02-23T01:35:45.481Z,14.63
2018-02-23T01:38:14.850Z,15.30
2018-02-23T01:40:44.139Z,15.17
2018-02-23T01:43:13.531Z,15.27
2018-02-23T01:45:43.682Z,15.37
2018-02-23T01:48:13.764Z,16.50
2018-02-23T01:50:55.941Z,15.93
2018-02-23T01:53:27.080Z,17.23
2018-02-23T01:55:57.083Z,16.20
2018-02-23T01:58:26.774Z,16.83
2018-02-23T02:00:55.650Z,17.17
2018-02-23T02:03:24.475Z,15.93
2018-02-23T02:05:53.890Z,17.17
2018-02-23T02:08:23.615Z,18.70
2018-02-23T02:10:52.546Z,17.77
2018-02-23T02:13:21.465Z,18.10
2018-02-23T02:15:50.373Z,18.33
2018-02-23T02:18:21.207Z,19.13
2018-02-23T02:20:51.701Z,18.40
2018-02-23T02:23:21.223Z,18.10
2018-02-23T02:25:52.539Z,18.33
2018-02-23T02:28:21.944Z,18.60
2018-02-23T02:30:52.666Z,17.50
2018-02-23T02:33:22.665Z,18.37
2018-02-23T02:35:52.672Z,18.13
2018-02-23T02:38:22.421Z,18.00
2018-02-23T02:40:54.242Z,18.37
2018-02-23T02:43:24.247Z,19.23
2018-02-23T02:45:53.787Z,18.40
2018-02-23T02:48:23.334Z,18.80
2018-02-23T02:50:54.343Z,18.10
2018-02-23T02:53:23.857Z,19.13
2018-02-23T02:55:53.624Z,18.43
2018-02-23T02:58:25.440Z,18.67
2018-02-23T03:00:55.219Z,19.03
2018-02-23T03:03:24.845Z,19.83
2018-02-23T03:05:55.211Z,19.90
2018-02-23T03:08:25.806Z,19.30
2018-02-23T03:10:54.962Z,19.87
2018-02-23T03:13:25.063Z,18.77
2018-02-23T03:15:54.730Z,19.50
2018-02-23T03:18:26.661Z,19.43
2018-02-23T03:20:55.549Z,20.20
2018-02-23T03:23:26.746Z,19.77
2018-02-23T03:25:56.748Z,20.33
2018-02-23T03:28:26.652Z,20.87
2018-02-23T03:30:57.024Z,20.20
2018-02-23T03:33:27.262Z,20.37
2018-02-23T03:35:58.838Z,20.27
2018-02-23T03:38:29.282Z,19.63
2018-02-23T03:40:58.806Z,19.57
2018-02-23T03:43:28.948Z,20.90
2018-02-23T03:45:59.088Z,20.30
2018-02-23T03:48:29.284Z,20.13
2018-02-23T03:50:59.515Z,20.33
2018-02-23T03:53:30.240Z,20.43
2018-02-23T03:56:00.166Z,21.20
2018-02-23T03:58:29.804Z,20.53
2018-02-23T04:00:59.759Z,20.77
2018-02-23T04:03:29.284Z,21.03
2018-02-23T04:05:59.403Z,20.90
2018-02-23T04:08:29.188Z,21.17
2018-02-23T04:10:58.814Z,21.27
2018-02-23T04:13:29.781Z,21.40
2018-02-23T04:15:59.650Z,21.40
2018-02-23T04:18:29.787Z,21.83
2018-02-23T04:21:00.288Z,21.87
2018-02-23T04:23:29.659Z,21.60
2018-02-23T04:26:00.028Z,22.17
2018-02-23T04:28:31.479Z,22.13
2018-02-23T04:31:05.165Z,21.57
2018-02-23T04:33:45.251Z,21.70
2018-02-23T04:36:18.252Z,21.30
2018-02-23T04:38:51.367Z,21.87
2018-02-23T04:41:24.047Z,21.13
2018-02-23T04:43:58.572Z,21.57
2018-02-23T04:46:28.357Z,21.73
2018-02-23T04:49:00.385Z,20.13
2018-02-23T04:51:29.908Z,21.40
2018-02-23T04:54:00.019Z,20.33
2018-02-23T04:56:29.207Z,21.80
2018-02-23T04:58:59.564Z,22.33
2018-02-23T05:01:29.918Z,22.30
2018-02-23T05:04:00.295Z,22.43
2018-02-23T05:06:31.110Z,20.90
2018-02-23T05:09:00.525Z,21.80
2018-02-23T05:11:31.116Z,22.27
2018-02-23T05:14:00.392Z,26.03
2018-02-23T05:16:30.215Z,22.20
2018-02-23T05:19:00.538Z,22.97
2018-02-23T05:21:31.000Z,22.03
2018-02-23T05:24:01.073Z,22.70
2018-02-23T05:26:30.063Z,21.40
2018-02-23T05:28:59.926Z,21.93
2018-02-23T05:31:29.560Z,22.17
2018-02-23T05:34:00.668Z,22.03
2018-02-23T05:36:31.746Z,23.37
2018-02-23T05:39:01.628Z,23.23
2018-02-23T05:41:31.610Z,22.77
2018-02-23T05:44:02.041Z,21.87
2018-02-23T05:46:31.378Z,22.10
2018-02-23T05:49:02.096Z,21.63
2018-02-23T05:51:31.744Z,22.57
2018-02-23T05:54:01.488Z,22.77
2018-02-23T05:56:31.600Z,21.93
2018-02-23T05:59:02.689Z,22.67
2018-02-23T06:01:32.098Z,22.97
2018-02-23T06:04:02.204Z,22.10
2018-02-23T06:06:31.246Z,21.10
2018-02-23T06:09:00.393Z,20.90
2018-02-23T06:11:30.891Z,22.60
2018-02-23T06:14:00.895Z,20.87
2018-02-23T06:16:31.980Z,20.70
2018-02-23T06:19:01.411Z,21.87
2018-02-23T06:21:31.875Z,21.10
2018-02-23T06:24:02.197Z,20.50
2018-02-23T06:26:32.012Z,21.13
2018-02-23T06:29:01.482Z,21.40
2018-02-23T06:31:31.853Z,19.83
2018-02-23T06:34:03.208Z,22.10
2018-02-23T06:36:34.518Z,21.27
2018-02-23T06:39:07.025Z,21.43
2018-02-23T06:41:37.725Z,21.63
2018-02-23T06:44:10.379Z,21.20
2018-02-23T06:46:39.820Z,22.53
2018-02-23T06:49:10.136Z,21.77
2018-02-23T06:51:41.486Z,21.90
2018-02-23T06:54:13.364Z,20.63
2018-02-23T06:56:43.624Z,20.90
2018-02-23T06:59:14.501Z,19.50
2018-02-23T07:01:45.794Z,20.03
2018-02-23T07:04:16.753Z,19.63
2018-02-23T07:06:46.730Z,20.07
2018-02-23T07:09:16.877Z,20.17
2018-02-23T07:11:48.336Z,19.90
2018-02-23T07:14:19.040Z,20.47
2018-02-23T07:16:48.791Z,19.40
2018-02-23T07:19:17.970Z,19.87
2018-02-23T07:21:47.102Z,20.20
2018-02-23T07:24:17.610Z,19.23
2018-02-23T07:26:48.444Z,20.47
2018-02-23T07:29:20.368Z,21.10
2018-02-23T07:31:49.773Z,20.37
2018-02-23T07:34:21.076Z,20.37
2018-02-23T07:36:50.986Z,19.30
2018-02-23T07:39:20.585Z,19.30
2018-02-23T07:41:50.223Z,20.57
2018-02-23T07:44:19.642Z,19.77
2018-02-23T07:46:49.987Z,19.87
2018-02-23T07:49:19.518Z,20.63
2018-02-23T07:51:50.627Z,19.60
2018-02-23T07:54:21.305Z,19.87
2018-02-23T07:56:53.476Z,20.03
2018-02-23T07:59:22.873Z,20.73
2018-02-23T08:01:52.176Z,19.17
2018-02-23T08:04:24.571Z,19.93
2018-02-23T08:06:54.317Z,19.07
2018-02-23T08:09:24.437Z,19.63
2018-02-23T08:11:55.414Z,20.07
2018-02-23T08:14:25.155Z,19.70
2018-02-23T08:16:55.535Z,20.20
2018-02-23T08:19:25.041Z,19.77
2018-02-23T08:21:59.480Z,20.37
2018-02-23T08:24:29.755Z,19.30
2018-02-23T08:26:59.978Z,18.87
2018-02-23T08:29:29.506Z,19.37
2018-02-23T08:31:58.641Z,19.23
2018-02-23T08:34:27.581Z,19.33
2018-02-23T08:36:56.757Z,19.43
2018-02-23T08:39:25.655Z,19.57
2018-02-23T08:41:55.297Z,18.50
2018-02-23T08:44:24.339Z,18.83
2018-02-23T08:46:55.156Z,19.10
2018-02-23T08:49:23.967Z,18.73
2018-02-23T08:51:53.480Z,19.20
2018-02-23T08:54:23.023Z,17.43
2018-02-23T08:56:52.075Z,18.10
2018-02-23T08:59:22.684Z,17.70
2018-02-23T09:01:51.957Z,18.27
2018-02-23T09:04:22.174Z,19.17
2018-02-23T09:06:51.686Z,17.60
2018-02-23T09:09:21.685Z,17.33
2018-02-23T09:11:51.122Z,17.70
2018-02-23T09:14:21.206Z,18.40
2018-02-23T09:16:50.994Z,17.87
2018-02-23T09:19:21.088Z,18.17
2018-02-23T09:21:50.758Z,19.63
2018-02-23T09:24:20.010Z,19.37
2018-02-23T09:26:50.487Z,19.63
2018-02-23T09:29:19.531Z,19.93
2018-02-23T09:31:51.721Z,19.83
2018-02-23T09:34:28.937Z,20.83
2018-02-23T09:36:58.692Z,19.43
2018-02-23T09:39:27.940Z,18.70
2018-02-23T09:41:57.220Z,18.87
2018-02-23T09:44:26.889Z,17.27
2018-02-23T09:46:56.268Z,16.00
2018-02-23T09:49:26.527Z,17.77
2018-02-23T09:51:57.375Z,18.30
2018-02-23T09:54:27.350Z,16.83
2018-02-23T09:56:58.059Z,16.50
2018-02-23T09:59:27.707Z,15.93
2018-02-23T10:01:57.703Z,16.23
2018-02-23T10:04:27.361Z,15.53
2018-02-23T10:06:57.116Z,16.77
2018-02-23T10:09:26.383Z,14.90
2018-02-23T10:11:56.284Z,16.23
2018-02-23T10:14:26.753Z,15.27
2018-02-23T10:16:56.393Z,15.37
2018-02-23T10:19:25.668Z,15.13
2018-02-23T10:21:54.822Z,13.63
2018-02-23T10:24:24.379Z,13.97
2018-02-23T10:26:53.279Z,12.80
2018-02-23T10:29:23.532Z,11.67
2018-02-23T10:31:52.796Z,11.67
2018-02-23T10:34:22.564Z,11.93
2018-02-23T10:36:53.898Z,11.47
2018-02-23T10:39:26.062Z,11.90
2018-02-23T10:41:56.056Z,10.97
2018-02-23T10:44:25.347Z,11.07
2018-02-23T10:46:55.088Z,10.90
2018-02-23T10:49:25.482Z,9.90
2018-02-23T10:51:54.392Z,9.73
2018-02-23T10:54:24.720Z,9.97
2018-02-23T10:56:54.722Z,10.40
2018-02-23T10:59:24.630Z,10.47
2018-02-23T11:01:54.620Z,11.37
2018-02-23T11:04:26.791Z,11.47
2018-02-23T11:06:57.040Z,11.10
2018-02-23T11:09:27.133Z,12.00
2018-02-23T11:11:56.417Z,11.03
2018-02-23T11:14:26.327Z,11.60
2018-02-23T11:16:55.488Z,11.30
2018-02-23T11:19:25.078Z,10.20
2018-02-23T11:21:54.495Z,9.20
2018-02-23T11:24:23.914Z,9.67
2018-02-23T11:26:53.885Z,9.37
2018-02-23T11:29:23.767Z,9.17
2018-02-23T11:31:53.424Z,8.13
2018-02-23T11:34:22.842Z,8.13
2018-02-23T11:36:52.597Z,7.93
2018-02-23T11:39:23.673Z,8.20
2018-02-23T11:41:53.219Z,8.53
2018-02-23T11:44:23.305Z,10.13
2018-02-23T11:46:52.477Z,9.10
2018-02-23T11:49:21.621Z,8.40
2018-02-23T11:51:50.678Z,8.17
2018-02-23T11:54:21.385Z,7.77
2018-02-23T11:56:51.621Z,9.17
2018-02-23T11:59:20.890Z,9.17
2018-02-23T12:01:51.131Z,8.30
2018-02-23T12:04:20.563Z,9.37
2018-02-23T12:06:49.838Z,9.63
2018-02-23T12:09:19.462Z,9.67
2018-02-23T12:11:48.869Z,12.20
2018-02-23T12:14:18.295Z,10.50
2018-02-23T12:16:48.413Z,10.23
2018-02-23T12:19:17.936Z,11.37
2018-02-23T12:21:46.850Z,9.97
2018-02-23T12:24:16.583Z,9.93
2018-02-23T12:26:46.107Z,10.43
2018-02-23T12:29:16.035Z,11.00
2018-02-23T12:31:45.880Z,10.53
2018-02-23T12:34:15.428Z,11.50
2018-02-23T12:36:45.404Z,11.10
2018-02-23T12:39:16.100Z,11.53
2018-02-23T12:41:45.438Z,11.30
2018-02-23T12:44:15.274Z,10.93
2018-02-23T12:46:45.624Z,11.10
2018-02-23T12:49:15.182Z,10.80
2018-02-23T12:51:45.070Z,10.67
2018-02-23T12:54:15.893Z,10.83
2018-02-23T12:56:46.468Z,11.03
2018-02-23T12:59:16.968Z,11.00
2018-02-23T13:01:46.762Z,10.47
2018-02-23T13:04:16.235Z,11.43
2018-02-23T13:06:47.954Z,10.23
2018-02-23T13:09:17.314Z,9.73
2018-02-23T13:11:47.210Z,11.23
2018-02-23T13:14:17.092Z,11.57
2018-02-23T13:16:47.933Z,10.80
2018-02-23T13:19:17.334Z,11.20
2018-02-23T13:21:47.942Z,10.33
2018-02-23T13:24:17.562Z,9.50
2018-02-23T13:26:47.106Z,8.37
2018-02-23T13:29:16.845Z,7.77
2018-02-23T13:31:47.201Z,7.77
2018-02-23T13:34:16.629Z,7.50
2018-02-23T13:36:45.787Z,7.40
2018-02-23T13:39:14.865Z,7.70
2018-02-23T13:41:44.845Z,8.03
2018-02-23T13:44:14.963Z,8.23
2018-02-23T13:46:46.724Z,8.87
2018-02-23T13:49:17.584Z,11.17
2018-02-23T13:51:47.235Z,11.33
2018-02-23T13:54:21.545Z,10.30
2018-02-23T13:56:51.412Z,10.33
2018-02-23T13:59:22.608Z,10.27
2018-02-23T14:01:54.303Z,9.97
2018-02-23T14:04:25.015Z,10.43
2018-02-23T14:07:01.147Z,9.90
2018-02-23T14:09:30.772Z,10.33
2018-02-23T14:12:01.141Z,9.80
2018-02-23T14:14:31.017Z,10.77
2018-02-23T14:17:01.151Z,10.73
2018-02-23T14:19:31.256Z,11.13
2018-02-23T14:22:00.829Z,11.13
2018-02-23T14:24:29.829Z,10.90
2018-02-23T14:27:00.434Z,11.30
2018-02-23T14:29:30.072Z,10.97
2018-02-23T14:32:00.941Z,11.30
2018-02-23T14:34:30.537Z,11.00
2018-02-23T14:36:59.710Z,11.07
2018-02-23T14:39:30.310Z,10.77
2018-02-23T14:42:00.331Z,11.57
2018-02-23T14:44:30.324Z,11.00
2018-02-23T14:46:59.941Z,10.80
2018-02-23T14:49:30.181Z,10.27
2018-02-23T14:52:00.361Z,11.17
2018-02-23T14:54:30.000Z,9.50
2018-02-23T14:57:00.805Z,10.47
2018-02-23T14:59:30.916Z,9.57
2018-02-23T15:02:00.344Z,9.23
2018-02-23T15:04:30.218Z,9.20
2018-02-23T15:07:00.693Z,9.80
2018-02-23T15:09:30.666Z,9.23
2018-02-23T15:12:00.310Z,9.57
2018-02-23T15:14:30.840Z,9.43
2018-02-23T15:17:01.514Z,9.33
2018-02-23T15:19:33.344Z,9.27
2018-02-23T15:22:03.085Z,8.13
2018-02-23T15:24:34.169Z,8.60
2018-02-23T15:27:04.518Z,8.10
2018-02-23T15:29:34.281Z,8.17
2018-02-23T15:32:15.979Z,8.67
2018-02-23T15:34:45.333Z,7.93
2018-02-23T15:37:14.728Z,8.03
2018-02-23T15:39:45.458Z,8.27
2018-02-23T15:42:18.935Z,7.73
2018-02-23T15:44:51.128Z,7.63
2018-02-23T15:47:22.420Z,7.70
2018-02-23T15:49:58.782Z,7.27
2018-02-23T15:52:29.260Z,7.80
2018-02-23T15:54:59.616Z,7.60
2018-02-23T16:00:38.369Z,7.37
2018-02-23T16:03:08.129Z,7.77
2018-02-23T16:05:38.877Z,7.43
2018-02-23T16:08:09.323Z,7.47
2018-02-23T16:10:39.329Z,7.27
2018-02-23T16:13:09.217Z,7.10
2018-02-23T16:15:39.211Z,7.23
2018-02-23T16:18:08.375Z,6.57
2018-02-23T16:20:37.796Z,6.33
2018-02-23T16:23:07.939Z,6.23
2018-02-23T16:25:37.691Z,7.40
2018-02-23T16:28:07.654Z,7.43
2018-02-23T16:30:37.433Z,6.90
2018-02-23T16:33:07.057Z,7.20
2018-02-23T16:35:36.871Z,7.03
2018-02-23T16:38:08.150Z,6.87
2018-02-23T16:40:41.390Z,7.30
2018-02-23T16:43:10.812Z,7.10
2018-02-23T16:45:41.408Z,6.80
2018-02-23T16:48:11.138Z,7.13
2018-02-23T16:50:40.789Z,7.07
2018-02-23T16:53:11.145Z,6.70
2018-02-23T16:55:42.707Z,6.97
2018-02-23T16:58:13.196Z,6.93
2018-02-23T17:00:43.436Z,7.77
2018-02-23T17:03:13.560Z,6.83
2018-02-23T17:05:43.448Z,7.27
2018-02-23T17:08:13.677Z,7.03
2018-02-23T17:10:42.886Z,7.30
2018-02-23T17:13:12.258Z,7.23
2018-02-23T17:15:41.516Z,7.40
2018-02-23T17:18:11.295Z,7.63
2018-02-23T17:20:40.591Z,8.00
2018-02-23T17:23:10.557Z,8.17
2018-02-23T17:25:41.160Z,8.80
2018-02-23T17:28:11.148Z,7.97
2018-02-23T17:30:42.135Z,7.37
2018-02-23T17:33:11.652Z,8.00
2018-02-23T17:35:41.374Z,7.93
2018-02-23T17:38:11.644Z,8.07
2018-02-23T17:40:42.389Z,8.30
2018-02-23T17:43:12.288Z,8.33
2018-02-23T17:45:43.231Z,8.00
2018-02-23T17:48:13.802Z,8.07
2018-02-23T17:50:43.324Z,8.90
2018-02-23T17:53:13.448Z,8.70
2018-02-23T17:55:44.086Z,10.20
2018-02-23T17:58:14.184Z,8.00
2018-02-23T18:00:45.394Z,8.20
2018-02-23T18:03:15.248Z,13.30
2018-02-23T18:05:44.897Z,8.87
2018-02-23T18:08:14.525Z,20.33
2018-02-23T18:10:44.175Z,20.27
2018-02-23T18:13:15.739Z,12.33
2018-02-23T18:15:45.727Z,8.67
2018-02-23T18:18:15.378Z,11.57
2018-02-23T18:20:44.653Z,22.97
2018-02-23T18:23:15.996Z,24.93
2018-02-23T18:25:46.210Z,15.33
2018-02-23T18:28:15.628Z,9.30
2018-02-23T18:30:45.497Z,8.73
2018-02-23T18:33:15.512Z,11.37
2018-02-23T18:35:45.142Z,15.00
2018-02-23T18:38:15.285Z,8.43
2018-02-23T18:40:45.403Z,7.30
2018-02-23T18:43:14.664Z,8.10
2018-02-23T18:45:43.156Z,7.60
2018-02-23T18:48:12.077Z,7.07
2018-02-23T18:50:40.537Z,6.87
2018-02-23T18:53:09.050Z,6.80
2018-02-23T18:55:37.333Z,6.80
2018-02-23T18:58:06.488Z,6.90
2018-02-23T19:00:34.844Z,6.83
2018-02-23T19:03:04.300Z,6.90
2018-02-23T19:05:33.390Z,7.20
2018-02-23T19:08:01.948Z,7.03
2018-02-23T19:10:31.302Z,7.27
2018-02-23T19:12:59.699Z,6.87
2018-02-23T19:15:28.113Z,7.50
2018-02-23T19:17:56.867Z,7.40
2018-02-23T19:20:26.392Z,6.80
2018-02-23T19:22:54.995Z,6.80
2018-02-23T19:25:23.299Z,7.30
2018-02-23T19:27:51.707Z,6.53
2018-02-23T19:30:20.854Z,6.80
2018-02-23T19:32:49.333Z,6.90
2018-02-23T19:35:17.661Z,9.90
2018-02-23T19:37:46.193Z,7.90
2018-02-23T19:40:14.589Z,7.90
2018-02-23T19:42:43.061Z,8.30
2018-02-23T19:45:11.823Z,8.20
2018-02-23T19:47:40.742Z,9.93
2018-02-23T19:50:10.126Z,9.70
2018-02-23T19:52:38.627Z,8.97
2018-02-23T19:55:07.106Z,10.23
2018-02-23T19:57:35.587Z,10.97
2018-02-23T20:00:03.964Z,11.17
2018-02-23T20:02:32.240Z,10.40
2018-02-23T20:05:01.160Z,11.50
2018-02-23T20:07:30.591Z,8.67
2018-02-23T20:10:00.112Z,13.43
2018-02-23T20:12:29.260Z,9.17
2018-02-23T20:14:57.846Z,9.00
2018-02-23T20:17:39.138Z,8.70
2018-02-23T20:20:08.815Z,9.70
2018-02-23T20:22:37.169Z,13.70
2018-02-23T20:25:05.631Z,9.77
2018-02-23T20:27:34.888Z,8.27
2018-02-23T20:30:03.667Z,9.27
2018-02-23T20:32:32.062Z,9.23
2018-02-23T20:35:00.535Z,8.10
2018-02-23T20:37:28.922Z,9.13
2018-02-23T20:39:57.421Z,8.60
2018-02-23T20:42:26.896Z,8.33
2018-02-23T20:44:56.820Z,8.40
2018-02-23T20:47:25.138Z,8.07
2018-02-23T20:49:53.574Z,8.10
2018-02-23T20:52:21.968Z,7.87
2018-02-23T20:54:50.481Z,9.20
2018-02-23T20:57:19.548Z,9.80
2018-02-23T20:59:48.775Z,9.20
2018-02-23T21:02:18.129Z,8.47
2018-02-23T21:04:46.560Z,8.50
2018-02-23T21:07:15.774Z,8.13
2018-02-23T21:09:44.404Z,8.43
2018-02-23T21:12:12.979Z,12.73
2018-02-23T21:14:41.345Z,7.90
2018-02-23T21:17:09.842Z,9.50
2018-02-23T21:19:38.144Z,8.00
2018-02-23T21:22:06.618Z,10.03
2018-02-23T21:24:35.009Z,8.40
2018-02-23T21:27:03.493Z,10.27
2018-02-23T21:29:31.780Z,8.23
2018-02-23T21:32:02.690Z,8.97
2018-02-23T21:34:31.003Z,9.03
2018-02-23T21:37:00.099Z,7.87
2018-02-23T21:39:28.531Z,8.00
2018-02-23T21:41:56.920Z,8.63
2018-02-23T21:44:26.829Z,8.27
2018-02-23T21:46:56.727Z,8.33
2018-02-23T21:49:26.355Z,7.50
2018-02-23T21:51:54.738Z,8.10
2018-02-23T21:54:23.875Z,8.03
2018-02-23T21:56:52.276Z,8.77
2018-02-23T21:59:21.118Z,8.20
2018-02-23T22:01:49.688Z,8.73
2018-02-23T22:04:18.281Z,9.13
2018-02-23T22:06:46.739Z,8.60
2018-02-23T22:09:15.444Z,8.57
2018-02-23T22:11:44.057Z,17.80
2018-02-23T22:14:13.082Z,23.67
2018-02-23T22:16:42.076Z,9.67
2018-02-23T22:19:10.553Z,9.00
2018-02-23T22:21:40.265Z,10.10
2018-02-23T22:24:08.577Z,8.53
2018-02-23T22:26:37.106Z,8.90
2018-02-23T22:29:06.168Z,8.63
2018-02-23T22:31:34.932Z,9.10
2018-02-23T22:34:03.628Z,9.80
2018-02-23T22:36:31.968Z,9.00
2018-02-23T22:39:00.520Z,9.27
2018-02-23T22:41:30.530Z,9.27
2018-02-23T22:43:58.869Z,9.33
2018-02-23T22:46:28.450Z,11.53
2018-02-23T22:48:57.474Z,13.30
2018-02-23T22:51:25.994Z,15.03
2018-02-23T22:53:57.073Z,12.00
2018-02-23T22:56:26.864Z,9.43
2018-02-23T22:58:55.938Z,9.43
2018-02-23T23:01:24.393Z,9.87
2018-02-23T23:03:53.017Z,9.50
2018-02-23T23:06:21.387Z,9.37
2018-02-23T23:08:49.885Z,9.73
2018-02-23T23:11:18.358Z,9.80
2018-02-23T23:13:46.727Z,9.33
2018-02-23T23:16:15.831Z,9.03
2018-02-23T23:18:44.141Z,9.20
2018-02-23T23:21:13.612Z,9.23
2018-02-23T23:23:42.227Z,9.07
2018-02-23T23:26:10.803Z,9.73
2018-02-23T23:28:39.519Z,9.33
2018-02-23T23:31:07.983Z,9.47
2018-02-23T23:33:36.476Z,9.40
2018-02-23T23:36:05.960Z,10.98
2018-02-23T23:38:35.155Z,9.93
2018-02-23T23:41:03.732Z,9.70
2018-02-23T23:43:33.156Z,9.13
2018-02-23T23:46:01.667Z,8.87
2018-02-23T23:48:30.205Z,9.03
2018-02-23T23:51:06.559Z,9.43
2018-02-23T23:53:35.737Z,9.33
2018-02-23T23:56:05.882Z,11.18
2018-02-23T23:58:35.055Z,9.83
